createdAt,value
2024-02-23T00:01:13.357Z,15.13
2024-02-23T00:03:40.336Z,15.14
2024-02-23T00:06:07.438Z,14.68
2024-02-23T00:08:34.240Z,14.76
2024-02-23T00:11:01.218Z,14.73
2024-02-23T00:13:27.886Z,15.13
2024-02-23T00:15:54.749Z,14.45
2024-02-23T00:18:21.851Z,14.83
2024-02-23T00:20:48.811Z,13.97
2024-02-23T00:23:15.580Z,14.34
2024-02-23T00:25:42.873Z,14.25
2024-02-23T00:28:09.726Z,13.96
2024-02-23T00:30:37.442Z,14.44
2024-02-23T00:33:04.546Z,14.17
2024-02-23T00:35:31.581Z,13.60
2024-02-23T00:37:58.315Z,13.63
2024-02-23T00:40:25.299Z,13.56
2024-02-23T00:42:51.900Z,13.85
2024-02-23T00:45:18.772Z,13.36
2024-02-23T00:47:47.232Z,13.54
2024-02-23T00:50:14.327Z,13.27
2024-02-23T00:52:42.239Z,13.58
2024-02-23T00:55:09.489Z,13.06
2024-02-23T00:57:36.956Z,12.42
2024-02-23T01:00:06.564Z,11.80
2024-02-23T01:02:34.540Z,11.76
2024-02-23T01:05:01.555Z,11.78
2024-02-23T01:07:28.978Z,11.33
2024-02-23T01:09:55.772Z,11.70
2024-02-23T01:12:22.386Z,10.41
2024-02-23T01:14:49.924Z,10.70
2024-02-23T01:17:16.937Z,10.76
2024-02-23T01:19:44.834Z,10.56
2024-02-23T01:22:11.773Z,10.73
2024-02-23T01:24:38.513Z,10.63
2024-02-23T01:27:05.440Z,10.77
2024-02-23T01:29:32.175Z,10.89
2024-02-23T01:31:59.023Z,10.83
2024-02-23T01:34:25.829Z,11.24
2024-02-23T01:36:52.536Z,10.80
2024-02-23T01:39:19.150Z,11.06
2024-02-23T01:41:45.922Z,10.84
2024-02-23T01:44:13.020Z,10.88
2024-02-23T01:46:40.012Z,11.31
2024-02-23T01:49:09.502Z,11.08
2024-02-23T01:51:36.802Z,10.71
2024-02-23T01:54:04.790Z,10.59
2024-02-23T01:56:32.802Z,10.48
2024-02-23T01:59:00.806Z,10.82
2024-02-23T02:01:27.486Z,11.06
2024-02-23T02:03:54.268Z,10.98
2024-02-23T02:06:20.959Z,11.13
2024-02-23T02:08:47.597Z,10.96
2024-02-23T02:11:14.476Z,10.65
2024-02-23T02:13:41.123Z,10.73
2024-02-23T02:16:07.894Z,10.89
2024-02-23T02:18:34.589Z,10.45
2024-02-23T02:21:01.946Z,10.48
2024-02-23T02:23:28.890Z,10.95
2024-02-23T02:25:59.559Z,10.22
2024-02-23T02:28:27.040Z,10.22
2024-02-23T02:30:57.233Z,10.51
2024-02-23T02:33:24.106Z,10.34
2024-02-23T02:35:53.761Z,10.66
2024-02-23T02:38:20.497Z,10.88
2024-02-23T02:40:47.268Z,10.04
2024-02-23T02:43:14.010Z,10.03
2024-02-23T02:45:40.642Z,10.20
2024-02-23T02:48:07.810Z,9.87
2024-02-23T02:50:34.667Z,10.27
2024-02-23T02:53:01.428Z,10.46
2024-02-23T02:55:28.105Z,10.25
2024-02-23T02:57:54.718Z,10.52
2024-02-23T03:00:21.427Z,9.92
2024-02-23T03:02:48.100Z,10.16
2024-02-23T03:05:14.826Z,10.28
2024-02-23T03:07:41.527Z,10.40
2024-02-23T03:10:08.410Z,10.09
2024-02-23T03:12:35.099Z,10.52
2024-02-23T03:15:04.022Z,10.12
2024-02-23T03:17:31.147Z,9.70
2024-02-23T03:19:59.214Z,10.04
2024-02-23T03:22:26.111Z,9.96
2024-02-23T03:24:52.729Z,9.49
2024-02-23T03:27:20.824Z,10.34
2024-02-23T03:29:47.413Z,10.21
2024-02-23T03:32:14.067Z,9.41
2024-02-23T03:34:40.761Z,9.83
2024-02-23T03:37:07.360Z,9.39
2024-02-23T03:39:34.112Z,9.64
2024-02-23T03:42:00.669Z,10.17
2024-02-23T03:44:27.479Z,10.07
2024-02-23T03:46:54.205Z,9.82
2024-02-23T03:49:20.923Z,9.93
2024-02-23T03:51:47.861Z,9.81
2024-02-23T03:54:14.496Z,9.69
2024-02-23T03:56:42.722Z,9.70
2024-02-23T03:59:11.366Z,9.82
2024-02-23T04:01:39.460Z,9.78
2024-02-23T04:04:06.969Z,9.29
2024-02-23T04:06:35.432Z,9.61
2024-02-23T04:09:02.301Z,9.73
2024-02-23T04:11:28.957Z,9.91
2024-02-23T04:13:55.635Z,8.89
2024-02-23T04:16:28.812Z,9.76
2024-02-23T04:18:56.048Z,9.49
2024-02-23T04:21:22.739Z,9.37
2024-02-23T04:23:49.579Z,9.22
2024-02-23T04:26:16.249Z,9.68
2024-02-23T04:28:43.058Z,9.90
2024-02-23T04:31:11.143Z,9.38
2024-02-23T04:33:38.959Z,9.55
2024-02-23T04:36:06.734Z,9.89
2024-02-23T04:38:33.398Z,9.88
2024-02-23T04:41:03.619Z,9.53
2024-02-23T04:43:30.329Z,10.19
2024-02-23T04:45:57.097Z,9.92
2024-02-23T04:48:23.805Z,9.80
2024-02-23T04:50:50.571Z,9.65
2024-02-23T04:53:17.181Z,9.76
2024-02-23T04:55:43.907Z,9.77
2024-02-23T04:58:13.129Z,9.62
2024-02-23T05:00:39.981Z,9.31
2024-02-23T05:03:10.313Z,9.64
2024-02-23T05:05:39.183Z,9.36
2024-02-23T05:08:06.140Z,9.03
2024-02-23T05:10:32.757Z,9.65
2024-02-23T05:12:59.436Z,9.38
2024-02-23T05:15:26.112Z,9.39
2024-02-23T05:17:52.953Z,9.42
2024-02-23T05:20:19.806Z,9.49
2024-02-23T05:22:46.446Z,9.74
2024-02-23T05:25:13.125Z,9.44
2024-02-23T05:27:39.876Z,9.30
2024-02-23T05:30:08.139Z,9.21
2024-02-23T05:32:35.120Z,9.17
2024-02-23T05:35:02.097Z,9.30
2024-02-23T05:37:28.762Z,8.68
2024-02-23T05:39:55.501Z,9.28
2024-02-23T05:42:22.199Z,9.46
2024-02-23T05:44:50.013Z,9.40
2024-02-23T05:47:16.806Z,9.45
2024-02-23T05:49:43.624Z,9.43
2024-02-23T05:52:10.826Z,9.52
2024-02-23T05:54:37.489Z,9.46
2024-02-23T05:57:04.426Z,9.76
2024-02-23T05:59:31.223Z,9.59
2024-02-23T06:02:00.913Z,9.39
2024-02-23T06:04:28.448Z,9.34
2024-02-23T06:06:55.287Z,9.18
2024-02-23T06:09:22.403Z,9.58
2024-02-23T06:11:49.247Z,9.50
2024-02-23T06:14:15.943Z,8.84
2024-02-23T06:16:42.541Z,9.28
2024-02-23T06:19:09.665Z,9.31
2024-02-23T06:21:36.335Z,9.83
2024-02-23T06:24:04.026Z,9.23
2024-02-23T06:26:31.129Z,9.44
2024-02-23T06:28:57.951Z,9.65
2024-02-23T06:31:24.751Z,9.22
2024-02-23T06:33:53.099Z,9.62
2024-02-23T06:36:19.976Z,9.76
2024-02-23T06:38:46.709Z,9.48
2024-02-23T06:41:13.458Z,9.27
2024-02-23T06:43:40.139Z,9.50
2024-02-23T06:46:10.669Z,9.42
2024-02-23T06:48:40.456Z,9.27
2024-02-23T06:51:10.845Z,9.83
2024-02-23T06:53:37.769Z,9.32
2024-02-23T06:56:05.015Z,9.45
2024-02-23T06:58:32.159Z,9.31
2024-02-23T07:00:58.831Z,9.48
2024-02-23T07:03:25.450Z,9.27
2024-02-23T07:05:52.184Z,9.78
2024-02-23T07:08:19.484Z,9.96
2024-02-23T07:10:46.513Z,9.75
2024-02-23T07:13:13.318Z,9.13
2024-02-23T07:15:39.960Z,10.12
2024-02-23T07:18:06.828Z,9.62
2024-02-23T07:20:33.743Z,9.81
2024-02-23T07:23:00.466Z,9.85
2024-02-23T07:25:27.291Z,9.40
2024-02-23T07:27:54.137Z,10.25
2024-02-23T07:30:20.909Z,10.04
2024-02-23T07:32:52.894Z,9.78
2024-02-23T07:35:20.752Z,9.96
2024-02-23T07:37:47.799Z,9.64
2024-02-23T07:40:17.233Z,10.36
2024-02-23T07:42:45.736Z,10.16
2024-02-23T07:45:12.486Z,10.22
2024-02-23T07:47:39.372Z,9.69
2024-02-23T07:50:06.748Z,9.81
2024-02-23T07:52:33.491Z,9.65
2024-02-23T07:55:01.410Z,9.86
2024-02-23T07:57:28.053Z,9.13
2024-02-23T07:59:55.330Z,9.72
2024-02-23T08:02:21.975Z,9.52
2024-02-23T08:04:49.750Z,9.56
2024-02-23T08:07:16.471Z,9.80
2024-02-23T08:09:43.148Z,9.66
2024-02-23T08:12:10.229Z,10.31
2024-02-23T08:14:37.037Z,10.46
2024-02-23T08:17:03.808Z,10.29
2024-02-23T08:19:30.632Z,10.37
2024-02-23T08:21:58.833Z,9.95
2024-02-23T08:24:27.617Z,10.47
2024-02-23T08:26:55.128Z,10.73
2024-02-23T08:29:22.311Z,10.55
2024-02-23T08:31:49.930Z,10.45
2024-02-23T08:34:18.960Z,10.29
2024-02-23T08:36:45.933Z,10.90
2024-02-23T08:39:12.559Z,10.84
2024-02-23T08:41:40.082Z,10.63
2024-02-23T08:44:06.801Z,11.13
2024-02-23T08:46:33.586Z,11.03
2024-02-23T08:49:00.354Z,10.42
2024-02-23T08:51:27.023Z,11.12
2024-02-23T08:53:53.618Z,11.12
2024-02-23T08:56:20.246Z,10.81
2024-02-23T08:58:47.051Z,10.83
2024-02-23T09:01:13.954Z,11.12
2024-02-23T09:03:40.787Z,11.59
2024-02-23T09:06:07.758Z,11.70
2024-02-23T09:08:34.531Z,11.90
2024-02-23T09:11:01.289Z,11.20
2024-02-23T09:13:31.333Z,12.35
2024-02-23T09:15:58.365Z,11.83
2024-02-23T09:18:26.629Z,11.88
2024-02-23T09:20:53.298Z,11.76
2024-02-23T09:23:20.212Z,11.90
2024-02-23T09:25:46.925Z,11.89
2024-02-23T09:28:13.644Z,11.75
2024-02-23T09:30:40.385Z,11.68
2024-02-23T09:33:07.305Z,11.69
2024-02-23T09:35:34.253Z,11.40
2024-02-23T09:38:01.236Z,11.93
2024-02-23T09:40:28.272Z,11.65
2024-02-23T09:43:00.205Z,11.42
2024-02-23T09:45:30.747Z,11.81
2024-02-23T09:47:59.272Z,11.72
2024-02-23T09:50:26.753Z,12.87
2024-02-23T09:52:53.901Z,12.73
2024-02-23T09:55:22.755Z,12.65
2024-02-23T09:57:52.711Z,12.42
2024-02-23T10:00:24.944Z,12.53
2024-02-23T10:02:52.286Z,12.30
2024-02-23T10:05:19.499Z,12.39
2024-02-23T10:07:47.532Z,12.77
2024-02-23T10:10:14.145Z,13.14
2024-02-23T10:12:40.990Z,12.87
2024-02-23T10:15:08.215Z,13.27
2024-02-23T10:17:36.415Z,15.07
2024-02-23T10:20:06.013Z,14.50
2024-02-23T10:22:33.382Z,12.93
2024-02-23T10:25:00.978Z,12.92
2024-02-23T10:27:29.213Z,13.86
2024-02-23T10:29:56.301Z,13.24
2024-02-23T10:32:25.415Z,13.29
2024-02-23T10:34:54.187Z,12.74
2024-02-23T10:37:24.060Z,13.39
2024-02-23T10:39:55.133Z,13.61
2024-02-23T10:42:25.788Z,13.53
2024-02-23T10:44:54.135Z,13.12
2024-02-23T10:47:22.940Z,12.86
2024-02-23T10:49:49.799Z,13.72
2024-02-23T10:52:18.481Z,12.95
2024-02-23T10:54:47.318Z,13.22
2024-02-23T10:57:16.547Z,13.17
2024-02-23T10:59:49.546Z,13.12
2024-02-23T11:02:21.873Z,13.12
2024-02-23T11:04:52.898Z,12.53
2024-02-23T11:07:23.612Z,13.52
2024-02-23T11:09:53.468Z,13.71
2024-02-23T11:12:28.002Z,13.21
2024-02-23T11:14:59.953Z,13.67
2024-02-23T11:17:34.903Z,13.44
2024-02-23T11:20:05.647Z,13.67
2024-02-23T11:22:39.103Z,14.00
2024-02-23T11:25:10.098Z,13.15
2024-02-23T11:27:38.208Z,13.19
2024-02-23T11:30:09.771Z,13.05
2024-02-23T11:32:45.820Z,12.63
2024-02-23T11:35:13.699Z,13.54
2024-02-23T11:38:00.481Z,12.74
2024-02-23T11:40:28.245Z,12.83
2024-02-23T11:42:58.596Z,13.47
2024-02-23T11:45:25.318Z,14.04
2024-02-23T11:47:52.192Z,13.89
2024-02-23T11:50:22.211Z,13.65
2024-02-23T11:52:49.271Z,14.12
2024-02-23T11:55:23.847Z,14.14
2024-02-23T11:57:58.282Z,13.72
2024-02-23T12:00:31.305Z,13.99
2024-02-23T12:02:57.987Z,14.31
2024-02-23T12:05:24.755Z,14.16
2024-02-23T12:07:51.712Z,13.15
2024-02-23T12:10:18.529Z,13.99
2024-02-23T12:12:45.141Z,13.92
2024-02-23T12:15:12.829Z,13.11
2024-02-23T12:17:48.420Z,13.69
2024-02-23T12:20:15.297Z,13.59
2024-02-23T12:22:42.538Z,13.72
2024-02-23T12:25:09.194Z,12.72
2024-02-23T12:27:36.093Z,13.64
2024-02-23T12:30:02.864Z,13.63
2024-02-23T12:32:29.567Z,12.93
2024-02-23T12:34:57.436Z,13.29
2024-02-23T12:37:24.628Z,12.72
2024-02-23T12:39:51.279Z,13.17
2024-02-23T12:42:19.568Z,13.00
2024-02-23T12:44:46.202Z,12.70
2024-02-23T12:47:12.946Z,12.43
2024-02-23T12:49:41.572Z,12.76
2024-02-23T12:52:09.913Z,12.41
2024-02-23T12:54:36.544Z,13.48
2024-02-23T12:57:03.219Z,13.18
2024-02-23T12:59:30.698Z,13.74
2024-02-23T13:01:57.527Z,14.16
2024-02-23T13:04:24.247Z,13.57
2024-02-23T13:06:50.996Z,13.92
2024-02-23T13:09:17.913Z,12.90
2024-02-23T13:11:44.764Z,13.41
2024-02-23T13:14:11.643Z,13.27
2024-02-23T13:16:38.325Z,13.90
2024-02-23T13:19:05.067Z,14.14
2024-02-23T13:21:33.827Z,13.86
2024-02-23T13:24:00.487Z,14.16
2024-02-23T13:26:27.330Z,13.88
2024-02-23T13:28:54.061Z,14.15
2024-02-23T13:31:21.292Z,13.31
2024-02-23T13:33:48.008Z,13.92
2024-02-23T13:36:14.771Z,14.14
2024-02-23T13:38:43.683Z,13.55
2024-02-23T13:41:10.677Z,13.66
2024-02-23T13:43:37.410Z,13.32
2024-02-23T13:46:05.474Z,13.10
2024-02-23T13:48:32.869Z,13.45
2024-02-23T13:51:04.404Z,13.65
2024-02-23T13:53:32.382Z,13.32
2024-02-23T13:55:59.078Z,13.26
2024-02-23T13:58:31.603Z,12.86
2024-02-23T14:00:58.362Z,12.82
2024-02-23T14:03:25.218Z,12.81
2024-02-23T14:05:51.920Z,13.06
2024-02-23T14:08:18.651Z,12.99
2024-02-23T14:10:45.482Z,13.20
2024-02-23T14:13:12.121Z,13.23
2024-02-23T14:15:38.728Z,12.26
2024-02-23T14:18:05.792Z,13.35
2024-02-23T14:20:32.450Z,13.20
2024-02-23T14:22:59.061Z,13.33
2024-02-23T14:25:25.644Z,13.08
2024-02-23T14:27:52.274Z,13.12
2024-02-23T14:30:19.281Z,14.09
2024-02-23T14:32:46.115Z,14.82
2024-02-23T14:35:12.917Z,14.46
2024-02-23T14:37:39.637Z,14.92
2024-02-23T14:40:06.947Z,14.15
2024-02-23T14:42:33.722Z,13.71
2024-02-23T14:45:00.437Z,14.10
2024-02-23T14:47:32.328Z,14.22
2024-02-23T14:50:03.027Z,13.70
2024-02-23T14:52:29.830Z,13.64
2024-02-23T14:54:56.394Z,13.58
2024-02-23T14:57:23.123Z,13.47
2024-02-23T14:59:51.436Z,13.09
2024-02-23T15:02:23.066Z,13.44
2024-02-23T15:04:50.493Z,13.62
2024-02-23T15:07:17.800Z,13.10
2024-02-23T15:09:44.513Z,13.05
2024-02-23T15:12:13.101Z,13.45
2024-02-23T15:14:40.097Z,12.93
2024-02-23T15:17:06.898Z,13.54
2024-02-23T15:19:33.738Z,13.36
2024-02-23T15:22:00.711Z,13.02
2024-02-23T15:24:28.709Z,13.24
2024-02-23T15:26:55.537Z,13.19
2024-02-23T15:29:22.293Z,13.26
2024-02-23T15:31:48.946Z,13.44
2024-02-23T15:34:15.812Z,13.18
2024-02-23T15:36:43.623Z,13.39
2024-02-23T15:39:10.275Z,13.69
2024-02-23T15:41:37.236Z,13.57
2024-02-23T15:44:04.333Z,13.70
2024-02-23T15:46:32.436Z,13.53
2024-02-23T15:48:59.386Z,13.68
2024-02-23T15:51:37.376Z,14.10
2024-02-23T15:54:13.930Z,13.27
2024-02-23T15:56:41.541Z,13.30
2024-02-23T15:59:09.591Z,13.43
2024-02-23T16:01:37.712Z,13.68
2024-02-23T16:04:05.438Z,13.27
2024-02-23T16:06:35.452Z,12.81
2024-02-23T16:09:03.856Z,13.54
2024-02-23T16:11:33.198Z,13.13
2024-02-23T16:14:00.218Z,12.58
2024-02-23T16:16:26.963Z,12.75
2024-02-23T16:18:53.684Z,13.06
2024-02-23T16:21:20.444Z,12.98
2024-02-23T16:23:47.065Z,12.77
2024-02-23T16:26:15.558Z,13.27
2024-02-23T16:28:42.239Z,12.56
2024-02-23T16:31:08.931Z,12.71
2024-02-23T16:33:35.607Z,13.10
2024-02-23T16:36:02.416Z,13.21
2024-02-23T16:38:29.107Z,13.29
2024-02-23T16:40:55.931Z,13.08
2024-02-23T16:43:22.681Z,12.98
2024-02-23T16:45:49.322Z,13.12
2024-02-23T16:48:17.451Z,12.96
2024-02-23T16:50:47.149Z,13.36
2024-02-23T16:53:14.605Z,13.29
2024-02-23T16:55:41.435Z,13.05
2024-02-23T16:58:08.722Z,13.40
2024-02-23T17:00:36.200Z,13.02
2024-02-23T17:03:02.925Z,13.15
2024-02-23T17:05:29.513Z,13.10
2024-02-23T17:07:56.739Z,12.87
2024-02-23T17:10:23.547Z,13.41
2024-02-23T17:12:50.967Z,13.28
2024-02-23T17:15:17.795Z,13.15
2024-02-23T17:17:44.805Z,12.64
2024-02-23T17:20:12.375Z,11.77
2024-02-23T17:22:39.267Z,11.29
2024-02-23T17:25:06.841Z,11.14
2024-02-23T17:27:35.898Z,11.29
2024-02-23T17:30:02.659Z,10.69
2024-02-23T17:32:29.325Z,11.11
2024-02-23T17:34:56.066Z,11.23
2024-02-23T17:37:22.851Z,11.32
2024-02-23T17:39:49.424Z,11.31
2024-02-23T17:42:15.982Z,11.58
2024-02-23T17:44:42.648Z,11.37
2024-02-23T17:47:09.331Z,11.14
2024-02-23T17:49:36.136Z,11.31
2024-02-23T17:52:02.867Z,11.45
2024-02-23T17:54:29.508Z,11.54
2024-02-23T17:56:56.507Z,11.45
2024-02-23T17:59:23.722Z,11.62
2024-02-23T18:01:50.470Z,11.65
2024-02-23T18:04:17.144Z,11.32
2024-02-23T18:06:44.119Z,11.60
2024-02-23T18:09:10.999Z,11.82
2024-02-23T18:11:39.509Z,11.63
2024-02-23T18:14:06.280Z,11.60
2024-02-23T18:16:32.864Z,11.63
2024-02-23T18:19:00.990Z,11.78
2024-02-23T18:21:31.494Z,11.83
2024-02-23T18:23:58.418Z,11.40
2024-02-23T18:26:26.676Z,11.66
2024-02-23T18:28:53.393Z,11.71
2024-02-23T18:31:21.178Z,11.58
2024-02-23T18:33:48.095Z,11.36
2024-02-23T18:36:17.728Z,11.38
2024-02-23T18:38:45.030Z,11.51
2024-02-23T18:41:15.272Z,11.38
2024-02-23T18:43:43.535Z,11.22
2024-02-23T18:46:13.888Z,11.30
2024-02-23T18:48:41.484Z,11.58
2024-02-23T18:51:09.371Z,11.76
2024-02-23T18:53:36.504Z,11.57
2024-02-23T18:56:06.980Z,11.21
2024-02-23T18:58:35.649Z,11.40
2024-02-23T19:01:02.274Z,11.06
2024-02-23T19:03:28.933Z,11.42
2024-02-23T19:05:55.646Z,11.35
2024-02-23T19:08:22.336Z,11.76
2024-02-23T19:10:49.150Z,11.63
2024-02-23T19:13:15.807Z,11.66
2024-02-23T19:15:44.376Z,11.77
2024-02-23T19:18:11.235Z,11.48
2024-02-23T19:20:37.950Z,11.37
2024-02-23T19:23:05.124Z,11.07
2024-02-23T19:25:32.004Z,11.32
2024-02-23T19:27:59.621Z,11.53
2024-02-23T19:30:26.583Z,11.56
2024-02-23T19:32:53.402Z,10.93
2024-02-23T19:35:20.285Z,10.81
2024-02-23T19:37:46.974Z,11.27
2024-02-23T19:40:14.787Z,11.68
2024-02-23T19:42:41.558Z,11.01
2024-02-23T19:45:08.589Z,11.11
2024-02-23T19:47:35.536Z,11.32
2024-02-23T19:50:02.418Z,11.70
2024-02-23T19:52:30.868Z,11.48
2024-02-23T19:54:57.500Z,11.36
2024-02-23T19:57:27.597Z,11.20
2024-02-23T19:59:55.093Z,11.12
2024-02-23T20:02:21.717Z,11.31
2024-02-23T20:04:53.724Z,11.30
2024-02-23T20:07:22.368Z,11.49
2024-02-23T20:09:49.136Z,11.51
2024-02-23T20:12:15.943Z,11.35
2024-02-23T20:14:42.935Z,11.39
2024-02-23T20:17:10.254Z,10.86
2024-02-23T20:19:37.095Z,10.80
2024-02-23T20:22:04.117Z,11.15
2024-02-23T20:24:30.853Z,11.08
2024-02-23T20:26:57.568Z,10.87
2024-02-23T20:29:24.174Z,11.01
2024-02-23T20:31:50.789Z,11.36
2024-02-23T20:34:17.898Z,11.37
2024-02-23T20:36:45.540Z,11.32
2024-02-23T20:39:12.406Z,11.25
2024-02-23T20:41:40.968Z,11.34
2024-02-23T20:44:08.542Z,11.22
2024-02-23T20:46:35.277Z,11.27
2024-02-23T20:49:02.992Z,11.12
2024-02-23T20:51:30.220Z,11.17
2024-02-23T20:53:56.917Z,10.94
2024-02-23T20:56:23.662Z,11.15
2024-02-23T20:58:50.631Z,11.05
2024-02-23T21:01:17.800Z,10.56
2024-02-23T21:03:44.884Z,11.06
2024-02-23T21:06:12.491Z,11.07
2024-02-23T21:08:40.270Z,11.23
2024-02-23T21:11:07.618Z,11.29
2024-02-23T21:13:34.421Z,11.37
2024-02-23T21:16:01.016Z,11.39
2024-02-23T21:18:27.670Z,11.31
2024-02-23T21:20:54.603Z,11.17
2024-02-23T21:23:23.235Z,11.22
2024-02-23T21:25:49.922Z,11.05
2024-02-23T21:28:18.244Z,11.20
2024-02-23T21:30:49.375Z,11.01
2024-02-23T21:33:16.453Z,11.03
2024-02-23T21:35:43.415Z,10.74
2024-02-23T21:38:10.808Z,10.91
2024-02-23T21:40:37.633Z,10.83
2024-02-23T21:43:05.642Z,10.78
2024-02-23T21:45:32.235Z,10.77
2024-02-23T21:47:59.065Z,10.74
2024-02-23T21:50:26.328Z,10.80
2024-02-23T21:52:53.015Z,10.68
2024-02-23T21:55:22.808Z,10.79
2024-02-23T21:57:49.505Z,10.17
2024-02-23T22:00:16.900Z,10.38
2024-02-23T22:02:43.594Z,10.57
2024-02-23T22:05:10.432Z,10.64
2024-02-23T22:07:38.666Z,10.39
2024-02-23T22:10:06.430Z,10.75
2024-02-23T22:12:33.005Z,10.70
2024-02-23T22:15:00.434Z,10.77
2024-02-23T22:17:28.272Z,10.78
2024-02-23T22:19:55.006Z,11.04
2024-02-23T22:22:21.968Z,11.12
2024-02-23T22:24:49.247Z,10.58
2024-02-23T22:27:17.144Z,10.81
2024-02-23T22:29:46.424Z,11.06
2024-02-23T22:32:13.286Z,10.92
2024-02-23T22:34:40.203Z,11.13
2024-02-23T22:37:06.858Z,11.20
2024-02-23T22:39:33.489Z,11.33
2024-02-23T22:42:00.276Z,11.07
2024-02-23T22:44:27.155Z,11.40
2024-02-23T22:46:55.781Z,11.12
2024-02-23T22:49:22.606Z,11.48
2024-02-23T22:51:49.293Z,11.23
2024-02-23T22:54:15.959Z,11.36
2024-02-23T22:56:42.956Z,11.40
2024-02-23T22:59:10.356Z,11.29
2024-02-23T23:01:38.139Z,11.39
2024-02-23T23:04:05.398Z,11.60
2024-02-23T23:06:35.329Z,11.27
2024-02-23T23:09:03.409Z,11.44
2024-02-23T23:11:30.340Z,11.15
2024-02-23T23:14:02.516Z,11.19
2024-02-23T23:16:29.194Z,11.12
2024-02-23T23:18:55.828Z,11.25
2024-02-23T23:21:24.929Z,11.08
2024-02-23T23:23:51.715Z,11.17
2024-02-23T23:26:19.987Z,10.91
2024-02-23T23:28:47.041Z,10.91
2024-02-23T23:31:16.255Z,10.94
2024-02-23T23:33:43.220Z,10.76
2024-02-23T23:36:11.677Z,10.58
2024-02-23T23:38:38.816Z,10.91
2024-02-23T23:41:05.489Z,10.92
2024-02-23T23:43:32.194Z,10.83
2024-02-23T23:45:58.897Z,10.81
2024-02-23T23:48:25.621Z,10.47
2024-02-23T23:50:52.238Z,10.80
2024-02-23T23:53:19.023Z,10.74
2024-02-23T23:55:45.693Z,10.66
2024-02-23T23:58:12.575Z,10.67
